Terminal Aerodrome Forecast
Issued by NWS

Home | Current Version | Previous Version | Text Only | Print | Product List | Glossary On
Versions: 1 2 3 4 5 6 7 8 9 10 11 12 13 14 15 16 17
000
FTUS43 KOAX 262320
TAFSNY
TAF
KSNY 262320Z 2700/2724 33007KT P6SM VCSH OVC090
     FM271000 24004KT 1SM BR BKN015
     FM271500 20010G20KT P6SM BKN045
     FM271900 17013G24KT P6SM BKN080=

USA.gov is the U.S. government's official web portal to all federal, state and local government web resources and services.